Time;durP1;ratioP1;P1;durP2;ratioP2;P2;SDS_P1;SDS_P2;PMS_P1;PMS_P2;Temp;Humidity;BMP_temperature;BMP_pressure;BME280_temperature;BME280_humidity;BME280_pressure;Samples;Min_cycle;Max_cycle;Signal;HPM_P1;HPM_P2
2022/03/14 00:00:27;;;;;;;20.17;9.60;;;;;;;2.36;72.49;100569.03;5054101;28;20053;-77
2022/03/14 00:02:54;;;;;;;19.20;10.05;;;;;;;2.33;72.48;100575.75;5052611;28;20409;-79
2022/03/14 00:05:27;;;;;;;19.67;9.55;;;;;;;2.23;72.44;100549.50;5053933;28;20059;-78
2022/03/14 00:07:54;;;;;;;19.13;9.55;;;;;;;2.34;72.36;100562.91;5054771;28;20135;-78
2022/03/14 00:10:22;;;;;;;20.88;9.50;;;;;;;2.28;72.34;100560.06;5054587;28;20126;-80
2022/03/14 00:12:50;;;;;;;17.67;8.40;;;;;;;2.38;72.10;100574.25;5054711;28;20057;-79
2022/03/14 00:15:17;;;;;;;18.08;9.23;;;;;;;2.31;72.37;100556.75;5054496;28;20126;-80
2022/03/14 00:17:45;;;;;;;18.27;9.57;;;;;;;2.45;72.40;100571.16;5054303;28;20057;-79
2022/03/14 00:20:13;;;;;;;18.42;9.77;;;;;;;2.40;72.00;100559.75;5053969;28;20053;-79
2022/03/14 00:22:41;;;;;;;18.50;9.38;;;;;;;2.50;71.89;100582.59;5054121;28;20065;-80
2022/03/14 00:25:10;;;;;;;20.45;9.57;;;;;;;2.44;71.93;100570.28;5054049;28;20057;-80
2022/03/14 00:27:38;;;;;;;18.85;9.48;;;;;;;2.41;71.86;100559.84;5053733;28;20144;-79
2022/03/14 00:30:10;;;;;;;15.50;8.30;;;;;;;2.45;71.65;100568.56;5053928;28;20060;-80
2022/03/14 00:32:38;;;;;;;19.52;9.77;;;;;;;2.49;71.77;100574.78;5052851;28;20083;-79
2022/03/14 00:35:09;;;;;;;18.27;9.75;;;;;;;2.51;71.66;100581.75;5053674;28;20114;-80
2022/03/14 00:37:38;;;;;;;17.15;9.13;;;;;;;2.50;71.92;100579.13;5053192;28;20464;-79
2022/03/14 00:40:07;;;;;;;16.67;9.10;;;;;;;2.49;71.85;100567.91;5053658;28;20084;-80
2022/03/14 00:42:36;;;;;;;15.77;9.02;;;;;;;2.54;71.69;100575.84;5054025;28;20052;-79
2022/03/14 00:45:03;;;;;;;16.95;9.13;;;;;;;2.49;71.45;100565.34;5053174;28;20135;-79
2022/03/14 00:47:31;;;;;;;17.75;8.70;;;;;;;2.52;71.73;100585.22;5053108;28;20045;-80
2022/03/14 00:49:58;;;;;;;18.90;9.07;;;;;;;2.51;71.36;100579.19;5053354;28;20574;-78
2022/03/14 00:52:25;;;;;;;17.75;9.40;;;;;;;2.48;71.83;100581.63;5053234;28;20080;-77
2022/03/14 00:54:51;;;;;;;18.17;10.05;;;;;;;2.44;71.83;100567.69;5053504;28;20057;-80
2022/03/14 00:57:18;;;;;;;20.50;9.85;;;;;;;2.59;71.21;100576.97;5053217;28;20049;-80
2022/03/14 00:59:45;;;;;;;15.65;8.95;;;;;;;2.55;71.23;100575.94;5051010;28;20044;-78
2022/03/14 01:02:12;;;;;;;15.68;9.43;;;;;;;2.54;71.25;100578.44;5042431;28;20053;-80
2022/03/14 01:04:39;;;;;;;17.70;9.48;;;;;;;2.38;71.41;100541.63;5037290;28;20080;-79
2022/03/14 01:07:06;;;;;;;19.25;10.40;;;;;;;2.49;71.65;100570.50;5053988;28;20041;-80
2022/03/14 01:09:33;;;;;;;22.95;10.18;;;;;;;2.55;71.60;100575.94;5052075;28;20099;-79
2022/03/14 01:12:01;;;;;;;20.98;9.88;;;;;;;2.55;71.54;100572.50;5053595;28;20052;-80
2022/03/14 01:14:28;;;;;;;18.67;9.23;;;;;;;2.55;71.36;100573.38;5054252;28;20080;-79
2022/03/14 01:16:55;;;;;;;19.70;10.10;;;;;;;2.32;71.16;100530.13;5054929;28;20079;-79
2022/03/14 01:19:22;;;;;;;16.77;9.13;;;;;;;2.45;71.62;100554.00;5053158;28;20061;-80
2022/03/14 01:21:49;;;;;;;17.48;10.13;;;;;;;2.57;71.56;100576.91;5052799;28;20060;-80
2022/03/14 01:24:16;;;;;;;18.23;10.10;;;;;;;2.56;71.04;100572.56;5053424;28;20057;-80
2022/03/14 01:26:43;;;;;;;19.27;9.85;;;;;;;2.52;71.45;100572.31;5052410;28;20048;-80
2022/03/14 01:29:10;;;;;;;17.85;9.35;;;;;;;2.57;71.13;100571.75;5053325;28;20052;-80
2022/03/14 01:31:38;;;;;;;20.80;9.93;;;;;;;2.60;71.19;100565.84;5061465;28;20057;-79
2022/03/14 01:34:05;;;;;;;20.65;9.70;;;;;;;2.58;70.76;100570.03;5060505;28;20053;-78
2022/03/14 01:36:32;;;;;;;17.80;9.35;;;;;;;2.59;70.94;100571.81;5052552;28;20060;-79
2022/03/14 01:39:00;;;;;;;18.90;9.73;;;;;;;2.62;70.98;100579.69;5053220;28;20103;-78
2022/03/14 01:41:28;;;;;;;18.50;9.18;;;;;;;2.60;70.79;100569.31;5051417;28;20057;-80
2022/03/14 01:43:56;;;;;;;17.90;10.02;;;;;;;2.57;70.94;100564.00;5052688;28;20063;-78
2022/03/14 01:46:23;;;;;;;18.40;9.88;;;;;;;2.59;71.17;100561.50;5052334;28;20052;-79
2022/03/14 01:48:51;;;;;;;18.52;9.80;;;;;;;2.60;70.79;100560.69;5052945;28;20049;-79
2022/03/14 01:51:25;;;;;;;16.90;9.02;;;;;;;2.64;70.57;100571.19;5052580;28;20094;-78
2022/03/14 01:53:53;;;;;;;18.92;9.85;;;;;;;2.63;71.20;100556.56;5052492;28;20053;-78
2022/03/14 01:56:21;;;;;;;16.25;9.07;;;;;;;2.66;70.75;100563.53;5052019;28;20457;-79
2022/03/14 01:58:48;;;;;;;20.27;9.70;;;;;;;2.67;70.67;100570.50;5052377;28;20064;-80
2022/03/14 02:01:15;;;;;;;20.50;10.13;;;;;;;2.60;70.61;100556.44;5056273;28;20151;-79
2022/03/14 02:03:43;;;;;;;20.42;9.52;;;;;;;2.63;70.50;100560.84;5056521;28;20049;-80
2022/03/14 02:06:10;;;;;;;18.67;9.57;;;;;;;2.66;70.57;100558.38;5056566;28;20057;-79
2022/03/14 02:08:37;;;;;;;18.42;10.05;;;;;;;2.56;71.05;100563.91;5056105;28;20061;-79
2022/03/14 02:11:04;;;;;;;21.70;10.18;;;;;;;2.61;70.84;100567.63;5056135;28;20578;-77
2022/03/14 02:13:31;;;;;;;17.83;10.05;;;;;;;2.56;70.91;100575.16;5055926;28;20515;-79
2022/03/14 02:15:57;;;;;;;16.58;9.73;;;;;;;2.44;70.60;100561.66;5055398;28;20045;-80
2022/03/14 02:18:25;;;;;;;16.98;9.70;;;;;;;2.57;70.76;100589.78;5056022;28;20089;-79
2022/03/14 02:20:52;;;;;;;18.10;10.02;;;;;;;2.58;70.87;100603.56;5055553;28;20053;-78
2022/03/14 02:23:19;;;;;;;17.25;9.15;;;;;;;2.57;70.84;100592.38;5055205;28;20420;-78
2022/03/14 02:25:50;;;;;;;17.20;9.27;;;;;;;2.61;70.62;100596.00;5055553;28;20049;-78
2022/03/14 02:28:22;;;;;;;18.92;9.55;;;;;;;2.58;70.82;100608.72;5055853;28;20060;-79
2022/03/14 02:30:50;;;;;;;20.02;10.18;;;;;;;2.54;70.94;100605.13;5054619;28;20071;-79
2022/03/14 02:33:18;;;;;;;16.15;8.98;;;;;;;2.55;71.01;100595.69;5055897;28;20095;-81
2022/03/14 02:35:46;;;;;;;18.60;10.05;;;;;;;2.45;71.11;100586.63;5055390;28;20068;-81
2022/03/14 02:38:17;;;;;;;20.42;10.27;;;;;;;2.59;70.92;100598.50;5055500;28;20103;-79
2022/03/14 02:40:46;;;;;;;17.42;9.40;;;;;;;2.61;70.77;100596.88;5055546;28;20504;-79
2022/03/14 02:43:15;;;;;;;18.92;9.73;;;;;;;2.59;70.59;100588.16;5055590;28;20493;-81
2022/03/14 02:45:45;;;;;;;17.10;9.70;;;;;;;2.58;70.49;100583.84;5055604;28;20057;-80
2022/03/14 02:48:12;;;;;;;19.85;10.13;;;;;;;2.56;70.81;100598.34;5055504;28;20514;-78
2022/03/14 02:50:42;;;;;;;18.88;10.40;;;;;;;2.54;70.94;100589.66;5055340;28;20056;-81
2022/03/14 02:53:13;;;;;;;16.52;9.50;;;;;;;2.59;70.78;100589.88;5055341;28;20056;-79
2022/03/14 02:55:40;;;;;;;;;;;;;;;2.39;70.92;100587.25;5044099;28;20515;-81
2022/03/14 02:58:07;;;;;;;19.42;9.98;;;;;;;2.45;71.39;100596.94;5048707;28;19925;-80
2022/03/14 03:00:37;;;;;;;18.98;10.05;;;;;;;2.32;71.07;100572.25;5035025;28;20063;-79
2022/03/14 03:03:06;;;;;;;18.63;10.13;;;;;;;2.52;71.10;100599.03;5035381;28;20049;-80
2022/03/14 03:05:34;;;;;;;18.65;10.10;;;;;;;2.47;71.02;100592.75;5053794;28;20474;-80
2022/03/14 03:08:04;;;;;;;22.08;10.38;;;;;;;2.46;71.08;100593.56;5055139;28;20413;-79
2022/03/14 03:10:34;;;;;;;19.33;10.40;;;;;;;2.54;70.66;100607.72;5033523;28;20510;-79
2022/03/14 03:13:02;;;;;;;20.20;10.13;;;;;;;2.51;70.97;100607.56;5034597;28;20057;-80
2022/03/14 03:15:30;;;;;;;21.20;9.38;;;;;;;2.53;70.99;100603.34;5037499;28;20077;-78
2022/03/14 03:17:57;;;;;;;18.95;10.15;;;;;;;2.51;71.00;100607.56;5055189;28;20048;-79
2022/03/14 03:20:25;;;;;;;19.27;9.63;;;;;;;2.51;70.72;100612.72;5054778;28;20077;-80
2022/03/14 03:22:52;;;;;;;23.90;11.68;;;;;;;2.37;70.84;100577.66;5055316;28;20092;-79
2022/03/14 03:25:20;;;;;;;18.40;10.00;;;;;;;2.42;71.03;100602.84;5055117;28;20053;-79
2022/03/14 03:27:47;;;;;;;16.77;8.77;;;;;;;2.53;70.87;100612.78;5055405;28;20056;-79
2022/03/14 03:30:15;;;;;;;19.33;9.90;;;;;;;2.52;70.83;100604.19;5062140;28;20059;-79
2022/03/14 03:32:42;;;;;;;19.35;9.23;;;;;;;2.42;70.98;100589.94;5064995;28;20049;-79
2022/03/14 03:35:09;;;;;;;17.73;9.45;;;;;;;2.35;70.71;100579.28;5066569;28;20517;-78
2022/03/14 03:37:37;;;;;;;18.90;9.40;;;;;;;2.31;70.75;100570.50;5061437;28;20048;-79
2022/03/14 03:40:05;;;;;;;18.60;9.43;;;;;;;2.53;70.95;100612.78;5059365;28;20103;-79
2022/03/14 03:42:32;;;;;;;15.35;9.20;;;;;;;2.31;70.61;100572.22;5054444;28;20076;-81
2022/03/14 03:44:59;;;;;;;15.48;8.63;;;;;;;2.53;70.99;100615.38;5052891;28;20147;-78
2022/03/14 03:47:25;;;;;;;18.83;9.43;;;;;;;2.48;70.93;100620.31;5052928;28;20065;-80
2022/03/14 03:49:52;;;;;;;14.25;8.50;;;;;;;2.55;70.51;100616.34;5054285;28;20045;-79
2022/03/14 03:52:19;;;;;;;16.60;9.25;;;;;;;2.54;70.85;100635.19;5054220;28;20080;-79
2022/03/14 03:54:46;;;;;;;17.77;9.15;;;;;;;2.51;70.65;100617.88;5054303;28;20048;-78
2022/03/14 03:57:13;;;;;;;18.55;8.85;;;;;;;2.55;70.58;100616.34;5054201;28;20519;-79
2022/03/14 03:59:40;;;;;;;19.92;9.85;;;;;;;2.59;70.58;100615.66;5053125;28;20057;-77
2022/03/14 04:02:08;;;;;;;19.17;9.90;;;;;;;2.61;70.23;100629.53;5052771;28;20490;-77
2022/03/14 04:04:37;;;;;;;17.40;9.05;;;;;;;2.55;70.39;100631.81;5052891;28;20477;-78
2022/03/14 04:07:09;;;;;;;16.38;8.18;;;;;;;2.59;70.20;100626.00;5052764;28;20057;-82
2022/03/14 04:09:36;;;;;;;17.40;8.57;;;;;;;2.53;70.67;100624.00;5053361;28;20049;-83
2022/03/14 04:12:03;;;;;;;21.90;9.68;;;;;;;2.62;70.45;100633.84;5054718;28;20048;-80
2022/03/14 04:14:30;;;;;;;17.15;9.52;;;;;;;2.64;70.45;100642.56;5053153;28;20048;-80
2022/03/14 04:17:01;;;;;;;17.58;8.75;;;;;;;2.62;70.08;100633.84;5049852;28;20079;-78
2022/03/14 04:19:35;;;;;;;16.52;8.32;;;;;;;2.52;70.48;100611.00;5052994;28;20063;-78
2022/03/14 04:22:03;;;;;;;16.23;8.63;;;;;;;2.58;70.21;100619.94;5048866;28;20092;-80
2022/03/14 04:24:30;;;;;;;17.63;8.98;;;;;;;2.63;70.40;100641.69;5051431;28;20445;-81
2022/03/14 04:26:57;;;;;;;15.63;8.13;;;;;;;2.58;70.34;100635.44;5053427;28;20135;-79
2022/03/14 04:29:24;;;;;;;13.52;7.43;;;;;;;2.57;70.54;100633.66;5053062;28;20055;-80
2022/03/14 04:31:51;;;;;;;14.90;7.85;;;;;;;2.54;70.41;100642.91;5053763;28;20064;-78
2022/03/14 04:34:18;;;;;;;14.13;7.32;;;;;;;2.41;70.58;100621.72;5053078;28;20068;-80
2022/03/14 04:37:12;;;;;;;15.20;8.30;;;;;;;2.51;70.41;100635.94;5053588;28;20057;-81
2022/03/14 04:39:42;;;;;;;15.88;7.43;;;;;;;2.58;70.25;100647.41;5053610;28;20056;-78
2022/03/14 04:42:09;;;;;;;15.48;8.32;;;;;;;2.60;70.23;100635.47;5053416;28;20540;-78
2022/03/14 04:44:36;;;;;;;13.70;8.00;;;;;;;2.58;70.23;100648.31;5053801;28;20057;-81
2022/03/14 04:47:04;;;;;;;14.52;7.57;;;;;;;2.43;70.29;100611.47;5054227;28;20102;-82
2022/03/14 04:49:31;;;;;;;13.75;7.10;;;;;;;2.46;70.32;100616.78;5053878;28;20050;-82
2022/03/14 04:51:59;;;;;;;13.70;7.50;;;;;;;2.48;70.11;100606.56;5052658;28;20052;-81
2022/03/14 04:54:26;;;;;;;15.48;7.40;;;;;;;2.63;69.46;100635.66;5052534;28;20084;-80
2022/03/14 04:56:54;;;;;;;12.90;7.40;;;;;;;2.74;69.68;100644.78;5054003;28;20122;-78
2022/03/14 04:59:22;;;;;;;14.90;7.85;;;;;;;2.83;69.34;100628.84;5049587;28;20136;-78
2022/03/14 05:01:49;;;;;;;15.73;7.65;;;;;;;2.89;69.26;100628.25;5044506;28;20049;-80
2022/03/14 05:04:18;;;;;;;14.38;6.85;;;;;;;3.01;69.17;100645.19;5033411;28;20111;-80
2022/03/14 05:06:45;;;;;;;13.93;6.82;;;;;;;2.97;69.03;100647.53;5033643;28;20053;-79
2022/03/14 05:09:12;;;;;;;12.50;7.70;;;;;;;2.99;68.67;100657.13;5032160;28;20508;-79
2022/03/14 05:11:40;;;;;;;11.93;6.63;;;;;;;2.97;68.81;100657.84;5033275;28;20053;-79
2022/03/14 05:14:10;;;;;;;12.23;6.63;;;;;;;2.86;68.72;100645.34;5033797;28;20058;-78
2022/03/14 05:16:37;;;;;;;15.43;6.93;;;;;;;2.81;68.64;100630.47;5054780;28;20077;-81
2022/03/14 05:19:04;;;;;;;10.18;5.97;;;;;;;3.04;68.25;100668.53;5054828;28;20428;-81
2022/03/14 05:21:33;;;;;;;10.43;5.85;;;;;;;2.97;67.74;100648.44;5057122;28;20064;-79
2022/03/14 05:24:00;;;;;;;11.65;6.63;;;;;;;3.20;68.03;100667.53;5050852;28;20492;-78
2022/03/14 05:26:27;;;;;;;7.53;4.13;;;;;;;3.04;66.59;100632.41;5052190;28;20053;-78
2022/03/14 05:28:54;;;;;;;7.75;5.68;;;;;;;3.06;65.89;100676.38;5052424;28;20041;-80
2022/03/14 05:31:21;;;;;;;10.57;5.10;;;;;;;3.00;65.75;100679.53;5052461;28;20163;-79
2022/03/14 05:33:48;;;;;;;10.63;5.50;;;;;;;3.03;65.57;100684.88;5051171;28;20563;-79
2022/03/14 05:36:15;;;;;;;12.93;4.82;;;;;;;3.05;65.22;100683.25;5047194;28;20052;-80
2022/03/14 05:38:42;;;;;;;12.57;4.07;;;;;;;3.06;63.48;100697.03;5050018;28;20056;-77
2022/03/14 05:41:14;;;;;;;6.30;3.15;;;;;;;2.80;61.36;100694.09;5051299;28;20053;-80
2022/03/14 05:43:41;;;;;;;4.53;2.58;;;;;;;2.59;60.31;100693.94;5051524;28;20095;-79
2022/03/14 05:46:08;;;;;;;2.90;2.30;;;;;;;2.53;59.01;100701.38;5052726;28;20125;-77
2022/03/14 05:48:35;;;;;;;4.40;2.80;;;;;;;2.44;58.58;100695.75;5051738;28;20045;-79
2022/03/14 05:51:04;;;;;;;5.32;3.00;;;;;;;2.12;58.24;100624.56;5049374;28;20119;-77
2022/03/14 05:53:31;;;;;;;6.68;2.60;;;;;;;2.90;57.43;100708.31;5049577;28;20064;-77
2022/03/14 05:55:58;;;;;;;4.03;2.13;;;;;;;2.72;54.72;100687.66;5050842;28;20073;-77
2022/03/14 05:58:25;;;;;;;2.97;1.40;;;;;;;2.50;52.47;100726.16;5050160;28;20065;-77
2022/03/14 06:00:52;;;;;;;2.42;1.55;;;;;;;2.41;52.18;100718.81;5050959;28;20087;-79
2022/03/14 06:03:20;;;;;;;3.13;1.67;;;;;;;2.32;49.98;100706.34;5043453;28;20789;-77
2022/03/14 06:05:48;;;;;;;3.03;1.42;;;;;;;2.41;50.46;100704.25;5052943;28;20091;-78
2022/03/14 06:08:17;;;;;;;3.17;1.30;;;;;;;2.55;50.22;100698.88;5050545;28;20081;-78
2022/03/14 06:10:46;;;;;;;3.25;1.50;;;;;;;2.69;49.10;100691.78;5047999;28;20049;-76
2022/03/14 06:13:13;;;;;;;4.43;1.42;;;;;;;2.78;48.67;100710.31;5050502;28;20068;-78
2022/03/14 06:15:45;;;;;;;5.40;1.70;;;;;;;2.73;48.57;100683.38;5050269;28;20134;-77
2022/03/14 06:18:12;;;;;;;1.60;1.40;;;;;;;2.85;48.00;100683.97;5050346;28;20510;-79
2022/03/14 06:20:39;;;;;;;1.90;1.30;;;;;;;3.18;47.57;100725.97;5050371;28;20588;-78
2022/03/14 06:23:06;;;;;;;6.22;1.83;;;;;;;3.52;46.45;100718.91;5050042;28;20107;-78
2022/03/14 06:25:35;;;;;;;4.50;1.70;;;;;;;3.63;46.21;100710.81;5053355;28;20150;-79
2022/03/14 06:28:03;;;;;;;4.57;1.40;;;;;;;3.45;45.46;100686.75;5050711;28;20045;-78
2022/03/14 06:30:30;;;;;;;1.98;1.20;;;;;;;3.57;45.16;100725.16;5051692;28;20139;-77
2022/03/14 06:32:57;;;;;;;1.95;1.27;;;;;;;3.54;45.17;100727.63;5046061;28;20057;-78
2022/03/14 06:35:24;;;;;;;6.00;1.98;;;;;;;3.71;44.45;100725.78;5050410;28;20672;-78
2022/03/14 06:37:51;;;;;;;3.63;1.48;;;;;;;3.66;44.22;100715.25;5049002;28;20045;-78
2022/03/14 06:40:18;;;;;;;3.53;1.75;;;;;;;3.80;44.66;100721.03;5050278;28;20053;-78
2022/03/14 06:42:49;;;;;;;2.67;1.48;;;;;;;3.82;43.90;100706.47;5048834;28;20044;-79
2022/03/14 06:45:23;;;;;;;2.97;1.40;;;;;;;3.92;43.37;100720.69;5051268;28;20059;-78
2022/03/14 06:47:52;;;;;;;2.65;1.33;;;;;;;3.92;43.68;100712.94;5052882;28;20555;-78
2022/03/14 06:50:20;;;;;;;2.25;1.48;;;;;;;3.61;43.20;100702.09;5055216;28;20048;-79
2022/03/14 06:52:47;;;;;;;5.32;1.60;;;;;;;4.04;43.47;100722.13;5054060;28;20103;-78
2022/03/14 06:55:15;;;;;;;6.57;1.45;;;;;;;4.37;42.99;100747.66;5054188;28;20056;-78
2022/03/14 06:57:42;;;;;;;3.38;1.70;;;;;;;4.28;42.16;100730.03;5057246;28;20104;-79
2022/03/14 07:00:10;;;;;;;2.50;1.33;;;;;;;4.12;42.26;100729.31;5056798;28;20095;-82
2022/03/14 07:02:41;;;;;;;6.25;1.45;;;;;;;4.09;42.42;100728.38;5058484;28;20045;-77
2022/03/14 07:05:13;;;;;;;2.72;1.20;;;;;;;3.98;42.11;100720.94;5059570;28;20048;-80
2022/03/14 07:07:40;;;;;;;3.72;1.63;;;;;;;4.15;42.21;100713.91;5054766;28;20139;-79
2022/03/14 07:10:08;;;;;;;6.15;1.50;;;;;;;4.44;41.62;100709.97;5055535;28;20090;-77
2022/03/14 07:12:42;;;;;;;4.80;1.55;;;;;;;4.48;41.41;100730.88;5053944;28;20057;-79
2022/03/14 07:15:10;;;;;;;1.00;0.93;;;;;;;4.46;41.44;100737.69;5044654;28;20056;-78
2022/03/14 07:17:41;;;;;;;2.50;1.40;;;;;;;4.46;41.65;100731.63;5059336;28;20064;-78
2022/03/14 07:20:10;;;;;;;4.45;1.58;;;;;;;4.78;40.89;100721.72;5056096;28;20057;-78
2022/03/14 07:22:54;;;;;;;2.47;1.60;;;;;;;5.07;40.97;100718.56;5052908;28;20402;-78
2022/03/14 07:25:27;;;;;;;4.32;1.88;;;;;;;5.40;40.76;100732.75;5069529;28;20184;-78
2022/03/14 07:27:58;;;;;;;4.78;1.83;;;;;;;5.41;40.01;100719.88;5039740;28;20076;-76
2022/03/14 07:30:25;;;;;;;4.72;1.80;;;;;;;5.12;40.11;100717.06;5056807;28;20049;-78
2022/03/14 07:32:52;;;;;;;4.47;1.60;;;;;;;5.13;40.47;100717.94;5055599;28;20056;-79
2022/03/14 07:35:21;;;;;;;4.00;1.98;;;;;;;4.97;40.55;100700.00;5055598;28;20049;-77
2022/03/14 07:37:48;;;;;;;4.55;2.00;;;;;;;5.15;40.43;100720.59;5054849;28;20061;-79
2022/03/14 07:40:15;;;;;;;2.38;1.70;;;;;;;5.30;39.96;100716.00;5054694;28;20053;-78
2022/03/14 07:42:44;;;;;;;4.75;2.03;;;;;;;5.27;39.92;100718.44;5054631;28;20064;-77
2022/03/14 07:45:14;;;;;;;3.97;1.80;;;;;;;4.98;40.28;100725.97;5052870;28;20468;-77
2022/03/14 07:47:41;;;;;;;6.65;1.92;;;;;;;4.83;40.20;100721.06;5054107;28;20123;-78
2022/03/14 07:50:10;;;;;;;5.63;1.77;;;;;;;4.64;40.26;100711.66;5054252;28;20053;-78
2022/03/14 07:52:37;;;;;;;3.95;1.80;;;;;;;4.42;40.89;100711.63;5054488;28;20053;-77
2022/03/14 07:55:06;;;;;;;2.40;1.75;;;;;;;4.46;40.25;100722.16;5054162;28;20485;-78
2022/03/14 07:57:35;;;;;;;3.07;2.20;;;;;;;4.47;40.36;100721.34;5053297;28;20053;-78
2022/03/14 08:00:09;;;;;;;4.90;1.85;;;;;;;4.35;40.49;100718.25;5054255;28;20083;-77
2022/03/14 08:02:43;;;;;;;6.43;2.30;;;;;;;4.18;41.04;100716.66;5054258;28;20502;-78
2022/03/14 08:05:14;;;;;;;6.07;2.30;;;;;;;4.15;40.88;100695.81;5055438;28;20049;-78
2022/03/14 08:07:46;;;;;;;3.97;1.88;;;;;;;4.13;41.14;100697.44;5053886;28;20087;-78
2022/03/14 08:10:17;;;;;;;3.22;1.80;;;;;;;4.09;41.03;100689.56;5054117;28;20413;-78
2022/03/14 08:12:49;;;;;;;3.80;1.98;;;;;;;4.14;40.82;100691.47;5055459;28;20071;-79
2022/03/14 08:15:33;;;;;;;5.45;2.33;;;;;;;4.19;41.17;100701.19;5053539;28;20426;-77
2022/03/14 08:18:02;;;;;;;4.93;2.40;;;;;;;4.28;41.28;100693.81;5054407;28;20052;-78
2022/03/14 08:20:30;;;;;;;17.00;3.57;;;;;;;4.23;41.23;100695.31;5043663;28;20079;-77
2022/03/14 08:22:59;;;;;;;46.08;4.43;;;;;;;4.03;40.89;100683.25;5053828;28;20143;-78
2022/03/14 08:25:27;;;;;;;7.10;2.33;;;;;;;4.04;40.71;100706.59;5053620;28;20509;-77
2022/03/14 08:27:55;;;;;;;6.80;2.42;;;;;;;4.00;40.67;100696.94;5051370;28;20060;-77
2022/03/14 08:30:22;;;;;;;6.57;2.35;;;;;;;3.85;41.04;100706.59;5050743;23;20061;-78
2022/03/14 08:32:53;;;;;;;10.38;3.13;;;;;;;3.95;41.02;100701.00;5033647;28;20075;-78
2022/03/14 08:35:20;;;;;;;4.20;1.90;;;;;;;4.12;40.76;100688.81;5034006;28;20493;-77
2022/03/14 08:37:51;;;;;;;4.25;1.95;;;;;;;4.40;40.93;100698.63;5033425;28;20057;-77
2022/03/14 08:40:22;;;;;;;3.25;1.70;;;;;;;4.35;40.22;100683.75;5034362;28;20132;-78
2022/03/14 08:42:52;;;;;;;4.25;1.75;;;;;;;4.26;40.52;100660.97;5033667;28;20137;-78
2022/03/14 08:45:19;;;;;;;7.50;2.50;;;;;;;4.40;40.90;100687.38;5033491;28;20050;-78
2022/03/14 08:47:47;;;;;;;3.45;1.92;;;;;;;4.45;40.64;100686.78;5033156;28;20042;-79
2022/03/14 08:50:15;;;;;;;2.92;1.60;;;;;;;4.53;40.49;100689.66;5032833;28;20438;-80
2022/03/14 08:52:45;;;;;;;8.55;2.00;;;;;;;4.70;40.00;100680.88;5024351;28;20049;-79
2022/03/14 08:55:15;;;;;;;7.38;2.50;;;;;;;4.71;39.21;100685.25;5024528;28;20041;-78
2022/03/14 08:57:42;;;;;;;1.92;1.27;;;;;;;4.67;38.98;100662.63;5022876;28;20064;-78
2022/03/14 09:00:11;;;;;;;16.52;2.80;;;;;;;4.38;40.21;100645.06;5022786;28;20045;-78
2022/03/14 09:02:41;;;;;;;15.43;2.85;;;;;;;4.30;39.94;100642.13;5021329;28;20064;-78
2022/03/14 09:05:08;;;;;;;33.75;4.47;;;;;;;4.59;39.91;100673.50;5025993;28;20057;-78
2022/03/14 09:07:35;;;;;;;40.35;5.22;;;;;;;4.62;39.68;100668.44;5025042;28;20046;-77
2022/03/14 09:10:05;;;;;;;39.10;5.25;;;;;;;4.70;39.41;100678.28;5038211;28;20053;-78
2022/03/14 09:12:33;;;;;;;18.13;2.55;;;;;;;4.68;38.80;100673.88;5034901;28;20152;-79
2022/03/14 09:15:01;;;;;;;7.40;1.80;;;;;;;4.68;39.26;100679.91;5033014;28;20053;-77
2022/03/14 09:17:32;;;;;;;13.00;2.83;;;;;;;4.70;39.55;100673.09;5032956;28;20585;-78
2022/03/14 09:20:05;;;;;;;;;;;;;;;4.58;40.31;100666.53;5033407;28;20287;-79
2022/03/14 09:22:33;;;;;;;11.75;3.17;;;;;;;4.56;40.26;100679.44;5032877;28;19925;-78
2022/03/14 09:25:05;;;;;;;11.27;2.38;;;;;;;4.63;39.91;100685.75;5032861;28;20053;-78
2022/03/14 09:27:32;;;;;;;10.85;2.70;;;;;;;4.60;39.28;100680.44;5029437;28;20557;-77
2022/03/14 09:29:59;;;;;;;9.77;2.70;;;;;;;4.54;39.17;100681.09;5026078;28;20076;-79
2022/03/14 09:32:25;;;;;;;5.43;2.45;;;;;;;4.43;39.93;100679.75;5015279;28;20395;-78
2022/03/14 09:34:53;;;;;;;2.70;1.90;;;;;;;4.47;39.54;100679.97;5014525;28;20084;-78
2022/03/14 09:37:20;;;;;;;3.30;1.83;;;;;;;4.51;39.36;100661.13;5018874;28;20092;-79
2022/03/14 09:39:47;;;;;;;5.57;2.10;;;;;;;4.58;39.91;100671.72;5028862;28;20053;-80
2022/03/14 09:42:14;;;;;;;3.35;2.28;;;;;;;4.61;39.63;100664.97;5024755;28;20050;-80
2022/03/14 09:44:43;;;;;;;6.45;2.40;;;;;;;4.49;39.68;100651.53;5023893;28;20518;-80
2022/03/14 09:47:11;;;;;;;3.63;2.10;;;;;;;4.48;39.63;100675.66;5023931;28;20429;-79
2022/03/14 09:49:42;;;;;;;3.92;1.98;;;;;;;4.43;39.96;100661.63;5024249;28;20064;-77
2022/03/14 09:52:11;;;;;;;6.60;2.58;;;;;;;4.47;40.00;100673.88;5028789;28;20052;-79
2022/03/14 09:54:38;;;;;;;6.82;2.42;;;;;;;4.65;40.15;100677.22;5033867;28;20060;-78
2022/03/14 09:57:05;;;;;;;4.00;2.20;;;;;;;4.79;39.54;100676.88;5032790;28;20046;-77
2022/03/14 09:59:35;;;;;;;4.28;2.20;;;;;;;4.87;39.46;100654.78;5033412;28;20054;-81
2022/03/14 10:02:02;;;;;;;4.35;2.20;;;;;;;5.11;38.81;100676.41;5035860;28;20110;-77
2022/03/14 10:04:29;;;;;;;7.10;2.42;;;;;;;5.09;39.06;100649.59;5032974;28;20064;-78
2022/03/14 10:06:56;;;;;;;2.45;2.25;;;;;;;5.03;38.81;100654.53;5033221;28;20061;-78
2022/03/14 10:09:23;;;;;;;2.22;1.65;;;;;;;5.00;39.00;100659.59;5032703;28;20050;-78
2022/03/14 10:11:50;;;;;;;3.53;2.03;;;;;;;5.19;38.76;100655.13;5032461;28;20053;-78
2022/03/14 10:14:19;;;;;;;5.65;2.13;;;;;;;5.33;38.52;100648.72;5032455;28;20057;-77
2022/03/14 10:16:47;;;;;;;2.30;2.10;;;;;;;5.39;38.80;100633.41;5032666;28;20144;-79
2022/03/14 10:19:20;;;;;;;6.18;2.15;;;;;;;5.43;38.15;100621.47;5032380;28;20151;-77
2022/03/14 10:21:50;;;;;;;7.18;2.75;;;;;;;5.49;38.82;100653.66;5028978;28;20057;-78
2022/03/14 10:24:22;;;;;;;7.72;3.35;;;;;;;5.43;38.77;100645.66;5016635;28;20058;-77
2022/03/14 10:26:50;;;;;;;6.78;2.65;;;;;;;5.43;38.75;100632.72;5016841;28;20054;-78
2022/03/14 10:29:22;;;;;;;5.30;2.47;;;;;;;5.45;38.89;100643.13;5016675;28;20081;-79
2022/03/14 10:31:56;;;;;;;5.07;2.50;;;;;;;5.49;38.27;100635.53;5016608;28;20054;-78
2022/03/14 10:34:23;;;;;;;11.85;4.82;;;;;;;5.47;39.12;100600.03;5016568;28;20076;-77
2022/03/14 10:36:57;;;;;;;12.48;5.68;;;;;;;5.76;38.59;100611.41;5016326;28;20085;-79
2022/03/14 10:39:25;;;;;;;8.68;2.60;;;;;;;6.02;38.11;100632.19;5016934;28;20133;-78
2022/03/14 10:42:02;;;;;;;3.78;2.55;;;;;;;5.95;38.49;100644.94;5016090;28;20054;-78
2022/03/14 10:44:45;;;;;;;8.63;2.78;;;;;;;5.83;38.19;100639.31;5016166;28;20120;-78
2022/03/14 10:47:13;;;;;;;4.30;2.28;;;;;;;5.68;38.22;100643.97;5016129;28;20057;-78
2022/03/14 10:49:43;;;;;;;4.88;2.55;;;;;;;5.43;38.29;100614.56;5016442;28;20081;-78
2022/03/14 10:52:17;;;;;;;6.57;3.10;;;;;;;5.51;38.47;100628.69;5015978;28;20064;-77
2022/03/14 10:54:44;;;;;;;4.70;2.47;;;;;;;5.38;39.28;100628.19;5015708;28;20057;-78
2022/03/14 10:57:16;;;;;;;6.07;2.78;;;;;;;5.49;38.47;100640.72;5015837;28;20065;-77
2022/03/14 10:59:46;;;;;;;6.00;2.45;;;;;;;5.41;38.30;100644.72;5015037;28;20165;-77
2022/03/14 11:02:17;;;;;;;4.85;2.42;;;;;;;5.21;38.47;100623.28;5016261;28;20498;-77
2022/03/14 11:04:50;;;;;;;7.55;2.72;;;;;;;5.23;38.86;100632.00;5016043;28;20446;-79
2022/03/14 11:07:24;;;;;;;5.18;2.70;;;;;;;5.21;39.05;100638.81;5015879;28;20057;-77
2022/03/14 11:09:54;;;;;;;4.50;2.67;;;;;;;5.16;39.40;100634.28;5015537;28;20144;-78
2022/03/14 11:12:23;;;;;;;3.40;2.28;;;;;;;5.03;39.51;100612.22;5015792;28;20062;-77
2022/03/14 11:15:09;;;;;;;5.50;2.55;;;;;;;5.13;39.51;100628.16;5015613;28;20533;-78
2022/03/14 11:17:37;;;;;;;2.83;2.30;;;;;;;5.23;39.24;100639.75;5015647;28;20050;-77
2022/03/14 11:20:24;;;;;;;7.85;3.03;;;;;;;5.36;39.25;100633.31;5015725;28;20050;-78
2022/03/14 11:22:51;;;;;;;4.07;1.70;;;;;;;5.33;39.14;100634.09;5015537;28;20058;-78
2022/03/14 11:25:20;;;;;;;6.03;2.35;;;;;;;5.24;38.96;100635.44;5015581;28;20085;-78
2022/03/14 11:27:49;;;;;;;5.72;2.33;;;;;;;5.24;39.87;100646.69;5015444;28;20058;-77
2022/03/14 11:30:18;;;;;;;4.80;2.50;;;;;;;5.23;39.56;100644.06;5015799;28;20453;-77
2022/03/14 11:32:45;;;;;;;6.18;2.30;;;;;;;5.22;39.67;100634.50;5014085;28;20588;-77
2022/03/14 11:35:12;;;;;;;3.22;2.13;;;;;;;5.12;39.89;100657.50;5015125;28;20058;-78